Time;durP1;ratioP1;P1;durP2;ratioP2;P2;SDS_P1;SDS_P2;PMS_P1;PMS_P2;Temp;Humidity;BMP_temperature;BMP_pressure;BME280_temperature;BME280_humidity;BME280_pressure;Samples;Min_cycle;Max_cycle;Signal;HPM_P1;HPM_P2
2021/05/31 00:00:44;;;;;;;7.80;3.30;;;11.20;92.40;;;;;;4455505;32;20195;-73
2021/05/31 00:03:11;;;;;;;5.80;3.23;;;11.20;92.50;;;;;;4455995;32;20384;-73
2021/05/31 00:05:38;;;;;;;5.20;3.63;;;11.10;92.70;;;;;;4455885;32;20218;-73
2021/05/31 00:08:05;;;;;;;8.27;3.73;;;11.10;92.90;;;;;;4452444;32;20199;-74
2021/05/31 00:10:32;;;;;;;5.20;3.57;;;11.10;93.10;;;;;;4453418;32;20150;-73
2021/05/31 00:12:59;;;;;;;4.47;3.30;;;11.00;93.20;;;;;;4440500;32;20166;-73
2021/05/31 00:15:29;;;;;;;9.30;3.63;;;11.00;93.50;;;;;;4440450;32;20193;-73
2021/05/31 00:17:56;;;;;;;5.10;3.53;;;11.00;93.50;;;;;;4441874;32;20533;-73
2021/05/31 00:20:23;;;;;;;6.50;3.60;;;10.90;93.80;;;;;;4440671;32;20162;-73
2021/05/31 00:22:50;;;;;;;5.57;3.87;;;10.90;93.90;;;;;;4441413;32;20169;-73
2021/05/31 00:25:17;;;;;;;6.50;3.37;;;10.80;93.90;;;;;;4440702;32;20509;-72
2021/05/31 00:27:44;;;;;;;8.10;3.70;;;10.80;94.20;;;;;;4441590;32;20237;-72
2021/05/31 00:30:13;;;;;;;5.90;3.23;;;10.80;94.30;;;;;;4440401;32;20189;-72
2021/05/31 00:32:40;;;;;;;5.90;3.23;;;10.80;94.50;;;;;;4439224;32;20177;-73
2021/05/31 00:35:09;;;;;;;6.13;3.20;;;10.80;94.30;;;;;;4437943;32;20150;-72
2021/05/31 00:37:37;;;;;;;5.17;3.10;;;10.80;94.30;;;;;;4437947;32;20154;-72
2021/05/31 00:40:05;;;;;;;4.13;3.03;;;10.80;94.50;;;;;;4439595;32;20243;-72
2021/05/31 00:42:32;;;;;;;4.27;3.13;;;10.70;94.70;;;;;;4438117;32;20147;-72
2021/05/31 00:44:59;;;;;;;6.43;3.20;;;10.70;94.90;;;;;;4438177;32;20146;-73
2021/05/31 00:47:25;;;;;;;4.67;3.07;;;10.70;94.90;;;;;;4451251;32;20207;-73
2021/05/31 00:49:54;;;;;;;5.73;3.47;;;10.70;95.00;;;;;;4440483;32;20376;-73
2021/05/31 00:52:22;;;;;;;4.97;3.37;;;10.60;95.20;;;;;;4439823;32;20416;-73
2021/05/31 00:54:49;;;;;;;6.40;2.93;;;10.60;95.20;;;;;;4439767;32;20242;-72
2021/05/31 00:57:16;;;;;;;4.87;3.00;;;10.60;95.30;;;;;;4438355;32;20174;-74
2021/05/31 00:59:44;;;;;;;6.27;3.10;;;10.60;95.40;;;;;;4439532;32;20153;-72
2021/05/31 01:02:12;;;;;;;4.93;3.10;;;10.50;95.50;;;;;;4439458;32;20227;-72
2021/05/31 01:04:39;;;;;;;4.30;2.87;;;10.50;95.70;;;;;;4438610;32;20191;-73
2021/05/31 01:07:44;;;;;;;4.53;3.10;;;10.50;95.80;;;;;;4439829;32;20154;-72
2021/05/31 01:10:30;;;;;;;5.90;3.10;;;10.50;96.20;;;;;;4439667;32;20168;-72
2021/05/31 01:13:07;;;;;;;5.23;3.10;;;10.40;96.10;;;;;;4439681;32;20192;-72
2021/05/31 01:15:41;;;;;;;5.70;3.00;;;10.40;96.20;;;;;;4439842;32;20183;-72
2021/05/31 01:18:15;;;;;;;4.57;2.97;;;10.30;96.50;;;;;;4441100;32;20493;-73
2021/05/31 01:21:03;;;;;;;5.50;3.20;;;10.30;96.70;;;;;;4441648;32;20146;-72
2021/05/31 01:23:35;;;;;;;7.63;2.90;;;10.30;96.80;;;;;;4439585;32;20139;-72
2021/05/31 01:26:14;;;;;;;4.77;2.83;;;10.30;96.80;;;;;;4440221;32;20150;-72
2021/05/31 01:29:03;;;;;;;6.33;3.10;;;10.20;97.00;;;;;;4440378;32;20533;-73
2021/05/31 01:31:41;;;;;;;5.70;3.33;;;10.20;97.10;;;;;;4442492;32;20185;-72
2021/05/31 01:34:11;;;;;;;5.20;3.00;;;10.20;97.30;;;;;;4446057;32;20518;-72
2021/05/31 01:36:44;;;;;;;4.67;3.00;;;10.10;97.70;;;;;;4448902;32;20159;-73
2021/05/31 01:39:14;;;;;;;6.03;3.13;;;10.10;98.20;;;;;;4451217;32;20183;-73
2021/05/31 01:41:43;;;;;;;4.67;3.00;;;10.10;98.00;;;;;;4444316;32;20164;-72
2021/05/31 01:44:13;;;;;;;7.43;3.07;;;10.10;98.10;;;;;;4442539;32;20135;-72
2021/05/31 01:46:40;;;;;;;4.63;2.90;;;10.00;98.50;;;;;;4444147;32;20195;-72
2021/05/31 01:49:09;;;;;;;6.00;3.23;;;10.00;98.80;;;;;;4442551;32;20199;-72
2021/05/31 01:51:37;;;;;;;5.00;3.07;;;10.00;98.80;;;;;;4442475;32;20157;-73
2021/05/31 01:54:10;;;;;;;6.13;3.23;;;9.90;98.80;;;;;;4441809;32;20216;-72
2021/05/31 01:56:39;;;;;;;4.63;3.10;;;9.90;99.20;;;;;;4442859;32;20444;-72
2021/05/31 01:59:06;;;;;;;5.47;3.13;;;9.90;99.10;;;;;;4442506;32;20142;-73
2021/05/31 02:01:33;;;;;;;4.63;2.93;;;9.80;99.20;;;;;;4441748;32;20461;-72
2021/05/31 02:04:01;;;;;;;6.20;3.10;;;9.80;99.30;;;;;;4442371;32;20351;-72
2021/05/31 02:06:27;;;;;;;5.20;2.90;;;9.80;99.60;;;;;;4442299;32;20185;-72
2021/05/31 02:08:54;;;;;;;5.30;3.10;;;9.80;99.80;;;;;;4442238;32;20189;-73
2021/05/31 02:11:48;;;;;;;6.50;3.00;;;9.70;99.80;;;;;;4442143;32;20482;-73
2021/05/31 02:14:35;;;;;;;5.33;3.03;;;9.60;99.90;;;;;;4443786;32;20422;-72
2021/05/31 02:17:09;;;;;;;6.93;2.90;;;9.60;99.90;;;;;;4432153;32;20402;-72
2021/05/31 02:19:38;;;;;;;3.80;2.87;;;9.60;99.90;;;;;;4443188;32;20130;-72
2021/05/31 02:22:08;;;;;;;5.33;3.00;;;9.60;99.90;;;;;;4442409;32;20146;-72
2021/05/31 02:24:40;;;;;;;4.53;2.90;;;9.60;99.90;;;;;;4442867;32;20151;-72
2021/05/31 02:27:07;;;;;;;3.77;2.53;;;9.60;99.90;;;;;;4443549;32;20130;-73
2021/05/31 02:29:36;;;;;;;6.17;2.90;;;9.50;99.90;;;;;;4441414;32;20475;-72
2021/05/31 02:32:05;;;;;;;5.60;3.07;;;9.50;99.90;;;;;;4441893;32;20142;-72
2021/05/31 02:34:33;;;;;;;6.20;3.07;;;9.50;99.90;;;;;;4441877;32;20218;-72
2021/05/31 02:37:00;;;;;;;5.87;3.13;;;9.50;99.90;;;;;;4441815;32;20168;-72
2021/05/31 02:39:27;;;;;;;4.27;2.80;;;9.50;99.90;;;;;;4441301;32;20179;-72
2021/05/31 02:41:54;;;;;;;6.17;2.70;;;9.50;99.90;;;;;;4441684;32;20177;-72
2021/05/31 02:44:21;;;;;;;4.33;2.90;;;9.50;99.90;;;;;;4441774;32;20222;-72
2021/05/31 02:46:48;;;;;;;4.77;3.40;;;9.40;99.90;;;;;;4441776;32;20143;-72
2021/05/31 02:49:15;;;;;;;5.73;2.73;;;9.40;99.90;;;;;;4441880;32;20184;-72
2021/05/31 02:51:43;;;;;;;6.03;3.10;;;9.40;99.90;;;;;;4441663;32;20198;-72
2021/05/31 02:54:12;;;;;;;5.13;3.20;;;9.40;99.90;;;;;;4441331;32;20225;-72
2021/05/31 02:56:39;;;;;;;6.73;3.13;;;9.40;99.90;;;;;;4442463;32;20188;-72
2021/05/31 02:59:06;;;;;;;6.13;2.80;;;9.40;99.90;;;;;;4442538;32;20455;-72
2021/05/31 03:01:33;;;;;;;4.17;2.90;;;9.40;99.90;;;;;;4441338;32;20142;-72
2021/05/31 03:04:02;;;;;;;4.43;2.80;;;9.40;99.90;;;;;;4441310;32;20157;-72
2021/05/31 03:06:29;;;;;;;4.30;2.90;;;9.30;99.90;;;;;;4442463;32;20142;-73
2021/05/31 03:08:56;;;;;;;5.10;2.90;;;9.40;99.90;;;;;;4441259;32;20399;-73
2021/05/31 03:11:24;;;;;;;5.70;3.03;;;9.40;99.90;;;;;;4442188;32;20176;-73
2021/05/31 03:13:51;;;;;;;3.97;2.70;;;9.30;99.90;;;;;;4442737;32;20525;-73
2021/05/31 03:16:18;;;;;;;4.87;3.33;;;9.40;99.90;;;;;;4442727;32;20197;-73
2021/05/31 03:18:45;;;;;;;6.30;2.83;;;9.40;99.90;;;;;;4442706;32;20135;-72
2021/05/31 03:21:12;;;;;;;4.53;2.53;;;9.40;99.90;;;;;;4442859;32;20183;-73
2021/05/31 03:23:39;;;;;;;3.93;2.70;;;9.40;99.90;;;;;;4441204;32;20200;-73
2021/05/31 03:26:06;;;;;;;6.43;3.00;;;9.50;99.90;;;;;;4441197;32;20135;-73
2021/05/31 03:28:33;;;;;;;4.70;3.10;;;9.50;99.90;;;;;;4441060;32;20138;-73
2021/05/31 03:30:59;;;;;;;4.37;3.10;;;9.50;99.90;;;;;;4440833;32;20464;-72
2021/05/31 03:33:26;;;;;;;6.63;3.10;;;9.50;99.90;;;;;;4441005;32;20139;-73
2021/05/31 03:35:53;;;;;;;4.50;2.83;;;9.60;99.90;;;;;;4440964;32;20157;-74
2021/05/31 03:38:20;;;;;;;4.73;3.30;;;9.60;99.90;;;;;;4442362;32;20195;-73
2021/05/31 03:40:47;;;;;;;3.87;3.00;;;9.60;99.90;;;;;;4441470;32;20195;-73
2021/05/31 03:43:14;;;;;;;4.73;2.83;;;9.50;99.90;;;;;;4440909;32;20200;-72
2021/05/31 03:45:41;;;;;;;4.90;2.77;;;9.60;99.90;;;;;;4440953;32;20143;-73
2021/05/31 03:48:08;;;;;;;4.80;2.93;;;9.60;99.90;;;;;;4440793;32;20142;-73
2021/05/31 03:50:36;;;;;;;4.57;2.93;;;9.60;99.90;;;;;;4440693;32;20154;-73
2021/05/31 03:53:02;;;;;;;6.23;2.90;;;9.70;99.90;;;;;;4440553;32;20203;-73
2021/05/31 03:55:29;;;;;;;3.40;2.73;;;9.70;99.90;;;;;;4439732;32;20154;-72
2021/05/31 03:57:56;;;;;;;7.17;3.10;;;9.70;99.90;;;;;;4440320;32;20158;-72
2021/05/31 04:00:25;;;;;;;5.00;3.00;;;9.70;99.90;;;;;;4440384;32;20150;-72
2021/05/31 04:02:51;;;;;;;3.97;2.80;;;9.80;99.90;;;;;;4442075;32;20151;-72
2021/05/31 04:05:19;;;;;;;5.50;3.20;;;9.80;99.90;;;;;;4440600;32;20194;-72
2021/05/31 04:13:20;;;;;;;6.80;2.97;;;10.10;99.90;;;;;;4440521;32;20468;-73
2021/05/31 04:15:47;;;;;;;5.47;3.00;;;10.30;99.90;;;;;;4440662;32;20135;-72
2021/05/31 04:18:14;;;;;;;8.53;3.40;;;10.30;99.90;;;;;;4440481;32;20283;-72
2021/05/31 04:20:41;;;;;;;4.37;2.80;;;10.30;99.90;;;;;;4440290;32;20138;-73
2021/05/31 04:23:08;;;;;;;5.70;3.20;;;10.30;99.90;;;;;;4440330;32;20139;-72
2021/05/31 04:25:35;;;;;;;5.53;2.90;;;10.30;99.90;;;;;;4441730;32;20158;-73
2021/05/31 04:28:02;;;;;;;5.03;3.13;;;10.40;99.90;;;;;;4440138;32;20150;-73
2021/05/31 04:30:29;;;;;;;5.90;3.40;;;10.30;99.90;;;;;;4439152;32;20169;-73
2021/05/31 04:32:56;;;;;;;9.23;3.57;;;10.20;99.90;;;;;;4440101;32;20143;-73
2021/05/31 04:35:23;;;;;;;4.93;3.13;;;10.20;99.90;;;;;;4440358;32;20453;-73
2021/05/31 04:37:56;;;;;;;5.30;3.40;;;10.30;99.90;;;;;;4439730;32;20134;-73
2021/05/31 04:40:23;;;;;;;5.70;3.10;;;10.20;99.90;;;;;;4441890;32;20142;-73
2021/05/31 04:42:50;;;;;;;6.93;3.30;;;10.20;99.90;;;;;;4439982;32;20138;-73
2021/05/31 04:45:17;;;;;;;6.03;3.30;;;10.20;99.90;;;;;;4440031;32;20233;-73
2021/05/31 04:47:43;;;;;;;5.77;3.53;;;10.20;99.90;;;;;;4439845;32;20165;-73
2021/05/31 04:50:13;;;;;;;7.23;3.40;;;10.20;99.90;;;;;;4439797;32;20146;-74
2021/05/31 04:52:40;;;;;;;5.63;3.13;;;10.30;99.90;;;;;;4440612;32;20173;-73
2021/05/31 04:55:14;;;;;;;5.53;3.10;;;10.40;99.90;;;;;;4441390;32;20135;-73
2021/05/31 04:57:41;;;;;;;5.33;3.10;;;10.50;99.90;;;;;;4441486;32;20142;-73
2021/05/31 05:00:09;;;;;;;10.20;3.30;;;10.70;99.90;;;;;;4441382;32;20146;-74
2021/05/31 05:02:36;;;;;;;8.20;3.20;;;10.80;99.90;;;;;;4441415;32;20168;-74
2021/05/31 05:05:04;;;;;;;5.10;3.30;;;10.90;99.90;;;;;;4439549;32;20491;-73
2021/05/31 05:07:31;;;;;;;6.90;3.30;;;11.00;99.90;;;;;;4441070;32;20234;-74
2021/05/31 05:09:57;;;;;;;9.63;3.67;;;11.20;99.90;;;;;;4439775;32;20146;-74
2021/05/31 05:12:24;;;;;;;6.97;3.63;;;11.20;99.90;;;;;;4439686;32;20143;-74
2021/05/31 05:14:51;;;;;;;8.17;3.43;;;11.30;99.90;;;;;;4439610;32;20195;-73
2021/05/31 05:17:18;;;;;;;7.77;3.43;;;11.40;99.90;;;;;;4439063;32;20368;-74
2021/05/31 05:19:45;;;;;;;5.20;3.10;;;11.60;99.90;;;;;;4439590;32;20442;-74
2021/05/31 05:22:12;;;;;;;6.23;3.27;;;11.60;99.90;;;;;;4439537;32;20174;-73
2021/05/31 05:24:39;;;;;;;8.47;3.50;;;11.70;99.90;;;;;;4440799;32;20142;-72
2021/05/31 05:27:07;;;;;;;8.37;3.53;;;11.80;99.50;;;;;;4438820;32;20146;-73
2021/05/31 05:29:34;;;;;;;8.63;3.30;;;11.90;99.10;;;;;;4439198;32;20195;-72
2021/05/31 05:32:02;;;;;;;7.93;3.17;;;12.00;99.30;;;;;;4439417;32;20461;-73
2021/05/31 05:34:29;;;;;;;6.30;3.00;;;11.90;98.50;;;;;;4439701;32;20191;-71
2021/05/31 05:37:01;;;;;;;6.93;3.20;;;12.00;98.60;;;;;;4440786;32;20246;-72
2021/05/31 05:49:43;;;;;;;9.13;3.00;;;13.20;97.40;;;;;;4440046;32;20202;-73
2021/05/31 05:52:10;;;;;;;6.37;2.67;;;13.40;96.90;;;;;;4440246;32;20215;-71
2021/05/31 05:54:37;;;;;;;6.47;2.90;;;13.60;96.10;;;;;;4441042;32;20188;-72
2021/05/31 05:57:05;;;;;;;5.77;2.80;;;13.70;95.40;;;;;;4439145;32;20154;-73
2021/05/31 05:59:32;;;;;;;4.33;2.63;;;13.80;94.70;;;;;;4447749;32;20177;-73
2021/05/31 06:02:00;;;;;;;6.30;2.50;;;13.80;94.30;;;;;;4439059;32;20346;-73
2021/05/31 06:04:27;;;;;;;6.60;2.67;;;14.00;93.30;;;;;;4439223;32;20166;-72
2021/05/31 06:06:54;;;;;;;8.13;2.70;;;14.10;93.70;;;;;;4439009;32;20135;-72
2021/05/31 06:09:21;;;;;;;7.73;2.67;;;14.10;92.90;;;;;;4440536;32;20134;-73
2021/05/31 06:11:48;;;;;;;5.03;2.77;;;14.10;92.70;;;;;;4439994;32;20207;-72
2021/05/31 06:14:16;;;;;;;4.47;2.77;;;14.20;93.30;;;;;;4438108;32;20242;-72
2021/05/31 06:16:42;;;;;;;3.70;2.30;;;14.10;93.10;;;;;;4438871;32;20187;-73
2021/05/31 06:19:09;;;;;;;5.30;2.63;;;14.10;92.90;;;;;;4442203;32;20139;-73
2021/05/31 06:21:36;;;;;;;5.33;2.70;;;14.20;93.20;;;;;;4442348;32;20151;-73
2021/05/31 06:24:04;;;;;;;5.03;2.57;;;14.30;92.70;;;;;;4442093;32;20135;-73
2021/05/31 06:26:31;;;;;;;9.43;2.90;;;14.30;91.90;;;;;;4441342;32;20138;-74
2021/05/31 06:28:58;;;;;;;9.93;3.10;;;14.40;91.90;;;;;;4442052;32;20141;-73
2021/05/31 06:31:25;;;;;;;6.23;2.80;;;14.50;92.30;;;;;;4442563;32;20346;-73
2021/05/31 06:33:52;;;;;;;5.00;2.67;;;14.60;92.10;;;;;;4441848;32;20181;-73
2021/05/31 06:36:19;;;;;;;11.27;3.30;;;14.60;91.50;;;;;;4441561;32;20143;-73
2021/05/31 06:38:45;;;;;;;6.73;2.57;;;14.70;91.60;;;;;;4441580;32;20307;-73
2021/05/31 06:41:12;;;;;;;4.60;2.63;;;14.90;91.30;;;;;;4443918;32;20146;-73
2021/05/31 06:43:39;;;;;;;4.27;2.50;;;15.00;90.70;;;;;;4444892;32;20150;-73
2021/05/31 06:46:07;;;;;;;5.53;2.67;;;15.10;90.30;;;;;;4446806;32;20421;-73
2021/05/31 06:48:35;;;;;;;4.57;2.30;;;15.20;89.70;;;;;;4441501;32;20400;-73
2021/05/31 06:51:03;;;;;;;3.47;2.30;;;15.30;87.50;;;;;;4441494;32;20158;-73
2021/05/31 06:53:30;;;;;;;5.27;2.40;;;15.30;89.00;;;;;;4441435;32;20162;-72
2021/05/31 06:55:57;;;;;;;7.37;2.50;;;15.30;87.10;;;;;;4441606;32;20187;-72
2021/05/31 06:58:24;;;;;;;4.07;2.40;;;15.30;85.90;;;;;;4441120;32;20138;-72
2021/05/31 07:00:52;;;;;;;7.17;2.20;;;15.30;86.90;;;;;;4442004;32;20143;-72
2021/05/31 07:03:19;;;;;;;4.47;2.00;;;15.40;85.40;;;;;;4441218;32;20165;-72
2021/05/31 07:05:45;;;;;;;4.93;1.80;;;15.50;84.00;;;;;;4441266;32;20507;-72
2021/05/31 07:08:12;;;;;;;4.97;1.93;;;15.40;81.90;;;;;;4441980;32;20146;-73
2021/05/31 07:10:40;;;;;;;4.43;1.80;;;15.40;81.80;;;;;;4441251;32;20143;-73
2021/05/31 07:13:07;;;;;;;5.13;1.80;;;15.40;79.30;;;;;;4442769;32;20158;-73
2021/05/31 07:15:34;;;;;;;3.40;2.00;;;15.60;80.20;;;;;;4442776;32;20142;-73
2021/05/31 07:18:01;;;;;;;5.57;2.20;;;15.60;79.50;;;;;;4441122;32;20142;-72
2021/05/31 07:20:28;;;;;;;3.73;2.10;;;15.70;77.60;;;;;;4440949;32;20143;-73
2021/05/31 07:22:55;;;;;;;2.73;1.80;;;15.70;77.90;;;;;;4441150;32;20157;-73
2021/05/31 07:25:22;;;;;;;4.43;1.80;;;15.60;74.70;;;;;;4440953;32;20142;-73
2021/05/31 07:27:49;;;;;;;5.00;1.70;;;15.60;75.70;;;;;;4440524;32;20156;-73
2021/05/31 07:30:19;;;;;;;6.10;1.70;;;15.70;74.70;;;;;;4440199;32;20187;-73
2021/05/31 07:32:47;;;;;;;5.47;1.50;;;15.80;72.40;;;;;;4441025;32;20250;-72
2021/05/31 07:35:14;;;;;;;4.27;1.57;;;15.90;69.80;;;;;;4440927;32;20142;-73
2021/05/31 07:37:41;;;;;;;2.90;1.70;;;15.90;70.10;;;;;;4440492;32;20153;-73
2021/05/31 07:40:11;;;;;;;3.60;1.60;;;15.80;71.20;;;;;;4439811;32;20534;-74
2021/05/31 07:42:39;;;;;;;3.87;1.27;;;15.90;70.30;;;;;;4441484;32;20143;-70
2021/05/31 07:45:08;;;;;;;2.10;1.50;;;16.00;66.90;;;;;;4442319;32;20177;-69
2021/05/31 07:47:35;;;;;;;4.17;1.27;;;16.00;64.20;;;;;;4440581;32;20134;-70
2021/05/31 07:50:04;;;;;;;2.70;1.50;;;16.10;64.10;;;;;;4441686;32;20234;-69
2021/05/31 07:52:31;;;;;;;2.63;1.50;;;15.90;63.50;;;;;;4440711;32;20189;-69
2021/05/31 07:54:58;;;;;;;1.87;1.20;;;15.90;62.80;;;;;;4440704;32;20161;-70
2021/05/31 07:57:25;;;;;;;2.27;1.30;;;15.80;63.00;;;;;;4442166;32;20183;-69
2021/05/31 07:59:53;;;;;;;5.07;1.47;;;15.80;62.10;;;;;;4442041;32;20135;-69
2021/05/31 08:02:23;;;;;;;2.90;1.37;;;15.80;62.20;;;;;;4441603;32;20217;-69
2021/05/31 08:04:49;;;;;;;4.37;1.63;;;15.80;63.50;;;;;;4444514;32;20176;-69
2021/05/31 08:07:16;;;;;;;1.70;1.30;;;15.90;64.50;;;;;;4454150;32;20215;-69
2021/05/31 08:09:45;;;;;;;2.33;1.30;;;16.00;61.60;;;;;;4456883;32;20161;-70
2021/05/31 08:12:12;;;;;;;2.73;1.27;;;16.00;60.90;;;;;;4455218;32;20425;-69
2021/05/31 08:14:40;;;;;;;3.33;1.50;;;16.20;64.50;;;;;;4457186;32;20455;-69
2021/05/31 08:17:07;;;;;;;3.10;1.30;;;16.50;63.30;;;;;;4455886;32;20219;-71
2021/05/31 08:19:34;;;;;;;2.97;1.47;;;16.80;59.70;;;;;;4455470;32;20139;-69
2021/05/31 08:22:03;;;;;;;3.40;1.50;;;17.20;60.30;;;;;;4455731;32;20169;-68
2021/05/31 08:24:30;;;;;;;2.90;1.60;;;17.30;59.20;;;;;;4455641;32;20138;-69
2021/05/31 08:26:57;;;;;;;3.33;1.60;;;17.40;58.40;;;;;;4455168;32;20245;-70
2021/05/31 08:29:24;;;;;;;4.77;1.50;;;17.70;59.80;;;;;;4455362;32;20146;-69
2021/05/31 08:31:52;;;;;;;2.70;1.37;;;17.80;58.30;;;;;;4456817;32;20142;-70
2021/05/31 08:34:19;;;;;;;1.97;1.47;;;18.20;56.70;;;;;;4455884;32;20368;-70
2021/05/31 08:36:46;;;;;;;4.03;1.50;;;18.80;55.70;;;;;;4454210;32;20150;-70
2021/05/31 08:39:13;;;;;;;2.13;1.50;;;19.00;55.60;;;;;;4453881;32;20218;-70
2021/05/31 08:41:41;;;;;;;2.00;1.30;;;19.00;55.60;;;;;;4455358;32;20134;-70
2021/05/31 08:44:09;;;;;;;2.60;1.30;;;19.30;55.60;;;;;;4456939;32;20138;-70
2021/05/31 08:46:37;;;;;;;1.50;1.30;;;19.00;53.70;;;;;;4456949;32;20146;-70
2021/05/31 08:49:06;;;;;;;2.50;1.30;;;19.10;54.20;;;;;;4455366;32;20138;-71
2021/05/31 08:51:35;;;;;;;6.77;1.40;;;18.90;53.00;;;;;;4455253;32;20145;-70
2021/05/31 08:54:04;;;;;;;4.17;1.30;;;18.80;54.00;;;;;;4454979;32;20203;-70
2021/05/31 08:56:32;;;;;;;2.23;1.40;;;18.70;53.30;;;;;;4455119;32;20141;-69
2021/05/31 08:58:59;;;;;;;2.13;1.40;;;19.10;54.00;;;;;;4455042;32;20536;-71
2021/05/31 09:01:27;;;;;;;3.90;1.00;;;19.60;53.70;;;;;;4454889;32;20138;-71
2021/05/31 09:03:56;;;;;;;2.17;1.10;;;20.50;53.90;;;;;;4454678;32;20187;-71
2021/05/31 09:06:26;;;;;;;2.10;1.20;;;20.90;50.60;;;;;;4455815;32;20145;-72
2021/05/31 09:08:58;;;;;;;3.63;1.10;;;20.80;49.30;;;;;;4454848;32;20138;-72
2021/05/31 09:11:27;;;;;;;2.30;1.30;;;20.50;48.30;;;;;;4454855;32;20145;-72
2021/05/31 09:13:56;;;;;;;4.57;1.40;;;19.80;49.40;;;;;;4454832;32;20157;-72
2021/05/31 09:16:30;;;;;;;2.87;1.50;;;19.50;50.60;;;;;;4454875;32;20555;-71
2021/05/31 09:19:00;;;;;;;4.70;1.33;;;19.40;50.80;;;;;;4454792;32;20189;-71
2021/05/31 09:21:31;;;;;;;2.03;1.20;;;19.10;51.50;;;;;;4455466;32;20157;-72
2021/05/31 09:24:01;;;;;;;2.83;1.30;;;18.70;50.50;;;;;;4454962;32;20168;-72
2021/05/31 09:26:44;;;;;;;2.77;1.50;;;18.20;51.30;;;;;;4456505;32;20138;-71
2021/05/31 09:29:11;;;;;;;1.70;1.37;;;18.60;52.30;;;;;;4454775;32;20137;-70
2021/05/31 09:31:38;;;;;;;1.60;1.17;;;18.80;51.70;;;;;;4454710;32;20201;-70
2021/05/31 09:34:15;;;;;;;4.43;1.23;;;19.00;51.50;;;;;;4455089;32;20181;-70
2021/05/31 09:36:53;;;;;;;2.20;1.00;;;19.20;49.80;;;;;;4454899;32;20190;-71
2021/05/31 09:39:27;;;;;;;2.87;1.10;;;19.80;49.40;;;;;;4456401;32;20453;-70
2021/05/31 09:42:16;;;;;;;1.70;1.20;;;20.30;48.60;;;;;;4455506;32;20146;-70
2021/05/31 09:45:08;;;;;;;2.43;1.10;;;20.70;48.30;;;;;;4456302;32;20134;-68
2021/05/31 09:47:36;;;;;;;1.33;1.10;;;21.10;48.00;;;;;;4456720;32;20220;-73
2021/05/31 09:50:05;;;;;;;2.70;1.30;;;21.40;44.70;;;;;;4454845;32;20389;-69
2021/05/31 09:52:33;;;;;;;1.40;0.90;;;21.80;45.20;;;;;;4455248;32;20157;-70
2021/05/31 09:55:07;;;;;;;2.73;1.20;;;22.30;45.30;;;;;;4456658;32;20194;-69
2021/05/31 09:57:35;;;;;;;3.90;1.10;;;22.50;43.40;;;;;;4457667;32;20169;-70
2021/05/31 10:00:14;;;;;;;2.67;1.30;;;22.70;43.80;;;;;;4457584;32;20516;-69
2021/05/31 10:02:56;;;;;;;3.00;1.40;;;22.40;42.70;;;;;;4459253;32;20190;-69
2021/05/31 10:10:38;;;;;;;1.67;1.20;;;21.40;45.30;;;;;;4458433;32;20174;-70
2021/05/31 10:13:06;;;;;;;2.27;1.33;;;21.20;45.50;;;;;;4458908;32;20166;-71
2021/05/31 10:15:39;;;;;;;1.53;1.30;;;21.00;45.70;;;;;;4457423;32;20190;-69
2021/05/31 10:18:09;;;;;;;2.80;1.20;;;20.80;46.40;;;;;;4458862;32;20479;-69
2021/05/31 10:20:37;;;;;;;4.50;1.30;;;20.70;46.50;;;;;;4457601;32;20231;-69
2021/05/31 10:23:06;;;;;;;6.90;1.40;;;20.50;47.20;;;;;;4457990;32;20185;-69
2021/05/31 10:25:34;;;;;;;1.77;1.40;;;20.60;47.60;;;;;;4457227;32;20154;-70
2021/05/31 10:28:09;;;;;;;3.80;1.43;;;20.40;46.10;;;;;;4458241;32;20168;-71
2021/05/31 10:30:42;;;;;;;2.07;1.20;;;20.40;46.90;;;;;;4458793;32;20528;-70
2021/05/31 10:33:17;;;;;;;1.73;1.20;;;20.50;46.00;;;;;;4457373;32;20185;-70
2021/05/31 10:35:45;;;;;;;2.47;1.30;;;21.30;46.30;;;;;;4457176;32;20153;-72
2021/05/31 10:38:15;;;;;;;3.73;1.40;;;21.90;45.10;;;;;;4457331;32;20430;-70
2021/05/31 10:40:45;;;;;;;3.17;1.27;;;22.40;43.60;;;;;;4455196;32;20188;-70
2021/05/31 10:43:14;;;;;;;4.07;1.30;;;22.60;43.70;;;;;;4445594;32;20150;-72
2021/05/31 10:45:42;;;;;;;2.23;1.20;;;22.50;43.20;;;;;;4456985;32;20134;-72
2021/05/31 10:48:20;;;;;;;2.25;1.27;;;22.30;43.80;;;;;;4452516;32;20158;-71
2021/05/31 10:50:48;;;;;;;2.10;1.30;;;23.00;45.40;;;;;;4443346;32;20150;-70
2021/05/31 10:53:25;;;;;;;1.92;1.12;;;23.50;42.30;;;;;;4443058;32;21121;-73
2021/05/31 10:55:59;;;;;;;2.92;1.25;;;23.40;41.00;;;;;;4457821;32;20160;-68
2021/05/31 10:58:35;;;;;;;2.92;1.33;;;23.60;41.70;;;;;;4458672;32;20203;-68
2021/05/31 11:01:08;;;;;;;1.77;1.35;;;23.00;40.30;;;;;;4456639;32;20210;-70
2021/05/31 11:03:52;;;;;;;1.92;1.40;;;22.90;41.20;;;;;;4453660;32;20217;-72
2021/05/31 11:06:24;;;;;;;4.00;1.33;;;22.50;41.60;;;;;;4456907;32;20176;-72
2021/05/31 11:09:21;;;;;;;2.60;1.20;;;22.00;42.40;;;;;;4457695;32;20157;-69
2021/05/31 11:11:55;;;;;;;3.77;1.60;;;21.70;43.70;;;;;;4457096;32;20177;-69
2021/05/31 11:14:43;;;;;;;3.23;1.30;;;21.30;43.30;;;;;;4458012;32;20152;-70
2021/05/31 11:17:12;;;;;;;3.17;1.40;;;21.30;44.50;;;;;;4458381;32;20141;-69
2021/05/31 11:19:45;;;;;;;2.73;1.20;;;21.70;44.10;;;;;;4448471;32;20145;-70
2021/05/31 11:22:13;;;;;;;2.33;1.40;;;22.70;43.70;;;;;;4441171;32;20158;-69
2021/05/31 11:24:40;;;;;;;3.15;1.60;;;23.40;42.00;;;;;;4441223;32;20453;-70
2021/05/31 11:27:09;;;;;;;3.37;1.60;;;23.80;41.20;;;;;;4441131;32;20165;-70
2021/05/31 11:29:36;;;;;;;4.12;1.40;;;23.80;40.30;;;;;;4442422;32;20203;-69
2021/05/31 11:32:04;;;;;;;3.90;1.45;;;23.30;41.10;;;;;;4442540;32;20159;-70
2021/05/31 11:34:33;;;;;;;2.90;1.60;;;22.70;42.40;;;;;;4441136;32;20162;-70
2021/05/31 11:37:00;;;;;;;3.28;1.50;;;22.10;41.60;;;;;;4442385;32;20177;-67
2021/05/31 11:39:32;;;;;;;1.87;1.27;;;21.60;42.50;;;;;;4442416;32;20134;-69
2021/05/31 11:41:59;;;;;;;2.93;1.30;;;21.30;43.20;;;;;;4442231;32;20552;-70
2021/05/31 11:44:31;;;;;;;3.17;1.20;;;21.20;44.00;;;;;;4445190;32;20219;-74
2021/05/31 11:47:01;;;;;;;3.00;1.30;;;21.20;44.50;;;;;;4456275;32;20679;-75
2021/05/31 11:49:30;;;;;;;4.50;1.20;;;21.60;45.20;;;;;;4438639;32;20154;-74
2021/05/31 11:52:01;;;;;;;1.50;1.30;;;22.60;43.60;;;;;;4438408;32;20162;-76
2021/05/31 11:54:32;;;;;;;3.75;1.55;;;23.20;40.60;;;;;;4436891;32;20235;-74
2021/05/31 11:57:08;;;;;;;2.53;1.30;;;24.20;40.60;;;;;;4437356;32;20174;-74
2021/05/31 11:59:38;;;;;;;2.37;1.20;;;25.10;38.80;;;;;;4437338;32;20237;-76
2021/05/31 12:02:13;;;;;;;2.50;1.35;;;25.50;37.40;;;;;;4438231;32;20178;-76
2021/05/31 12:04:47;;;;;;;3.05;1.23;;;25.40;35.90;;;;;;4438440;32;20529;-74
2021/05/31 12:07:20;;;;;;;3.55;1.40;;;24.80;36.20;;;;;;4440144;32;20142;-74
2021/05/31 12:09:48;;;;;;;3.60;1.70;;;23.80;38.10;;;;;;4438892;32;20408;-76
2021/05/31 12:12:17;;;;;;;3.05;1.37;;;23.40;39.10;;;;;;4440560;32;20178;-76
2021/05/31 12:14:53;;;;;;;2.80;1.52;;;23.40;39.80;;;;;;4440683;32;20158;-74
2021/05/31 12:17:25;;;;;;;4.17;1.53;;;23.40;39.10;;;;;;4440613;32;20161;-74
2021/05/31 12:19:53;;;;;;;4.12;1.52;;;22.80;40.20;;;;;;4447383;32;20162;-74
2021/05/31 12:22:23;;;;;;;4.53;1.37;;;22.50;41.30;;;;;;4457651;32;20197;-75
2021/05/31 12:24:53;;;;;;;1.95;1.30;;;21.70;40.40;;;;;;4455989;32;20574;-75
2021/05/31 12:27:29;;;;;;;1.90;1.30;;;21.70;41.80;;;;;;4457230;32;20480;-76
2021/05/31 12:29:57;;;;;;;2.03;1.40;;;22.30;41.70;;;;;;4455319;32;20217;-75
2021/05/31 12:32:26;;;;;;;4.33;1.40;;;23.30;41.30;;;;;;4448987;32;20213;-74
2021/05/31 12:34:54;;;;;;;3.55;1.60;;;24.20;38.80;;;;;;4441937;32;20147;-74
2021/05/31 12:37:29;;;;;;;2.50;1.33;;;24.80;36.40;;;;;;4440648;32;20480;-74
2021/05/31 12:39:58;;;;;;;2.85;1.30;;;25.30;35.10;;;;;;4441637;32;20154;-74
2021/05/31 12:42:29;;;;;;;2.33;1.33;;;26.40;35.70;;;;;;4439982;32;20173;-75
2021/05/31 12:45:10;;;;;;;2.55;1.40;;;27.20;34.40;;;;;;4441099;32;20206;-77
2021/05/31 12:47:43;;;;;;;2.92;1.55;;;28.00;33.20;;;;;;4441145;32;20486;-76
2021/05/31 12:50:14;;;;;;;2.60;1.50;;;27.70;32.20;;;;;;4448341;32;20154;-74
2021/05/31 12:52:43;;;;;;;2.78;1.50;;;27.00;32.70;;;;;;4453469;32;20174;-73
2021/05/31 12:55:16;;;;;;;3.03;1.50;;;25.60;33.50;;;;;;4454753;32;20181;-76
2021/05/31 12:57:48;;;;;;;3.30;1.58;;;25.00;35.20;;;;;;4455410;32;20170;-78
2021/05/31 13:00:16;;;;;;;3.45;1.30;;;24.90;36.20;;;;;;4449202;32;20417;-76
2021/05/31 13:02:49;;;;;;;3.35;1.50;;;25.20;36.40;;;;;;4455169;32;20150;-76
2021/05/31 13:05:18;;;;;;;2.08;1.40;;;26.20;36.00;;;;;;4454980;32;20153;-77
2021/05/31 13:07:49;;;;;;;5.35;1.80;;;26.50;33.50;;;;;;4455117;32;20173;-77
2021/05/31 13:10:25;;;;;;;2.62;1.45;;;26.90;32.80;;;;;;4454092;32;20174;-77
2021/05/31 13:12:56;;;;;;;2.75;1.50;;;27.60;32.50;;;;;;4447141;32;20185;-76
2021/05/31 13:15:44;;;;;;;1.60;1.40;;;27.80;31.30;;;;;;4439782;32;20511;-77
2021/05/31 13:18:21;;;;;;;4.18;1.42;;;28.30;30.20;;;;;;4440083;32;20524;-76
2021/05/31 13:20:57;;;;;;;2.53;1.20;;;28.50;31.10;;;;;;4446419;32;20134;-76